sensor_id;sensor_type;location;lat;lon;timestamp;pressure;altitude;pressure_sealevel;temperature;humidity
49949;BME280;35840;45.982;8.890;2023-03-05T00:02:05;98113.72;;;5.71;66.56
49949;BME280;35840;45.982;8.890;2023-03-05T00:04:32;98114.50;;;5.73;66.51
49949;BME280;35840;45.982;8.890;2023-03-05T00:06:59;98108.72;;;5.69;66.59
49949;BME280;35840;45.982;8.890;2023-03-05T00:09:26;98118.91;;;5.69;67.18
49949;BME280;35840;45.982;8.890;2023-03-05T00:11:53;98110.38;;;5.71;67.57
49949;BME280;35840;45.982;8.890;2023-03-05T00:14:19;98110.66;;;5.64;65.75
49949;BME280;35840;45.982;8.890;2023-03-05T00:16:46;98110.75;;;5.61;66.77
49949;BME280;35840;45.982;8.890;2023-03-05T00:19:13;98111.47;;;5.46;66.54
49949;BME280;35840;45.982;8.890;2023-03-05T00:21:40;98107.25;;;5.45;67.05
49949;BME280;35840;45.982;8.890;2023-03-05T00:24:11;98120.53;;;5.32;67.31
49949;BME280;35840;45.982;8.890;2023-03-05T00:26:38;98111.28;;;5.30;68.22
49949;BME280;35840;45.982;8.890;2023-03-05T00:29:06;98108.47;;;5.36;69.20
49949;BME280;35840;45.982;8.890;2023-03-05T00:31:34;98110.75;;;5.42;68.40
49949;BME280;35840;45.982;8.890;2023-03-05T00:34:04;98117.38;;;5.46;67.98
49949;BME280;35840;45.982;8.890;2023-03-05T00:36:32;98112.50;;;5.21;67.45
49949;BME280;35840;45.982;8.890;2023-03-05T00:38:59;98115.69;;;5.26;67.47
49949;BME280;35840;45.982;8.890;2023-03-05T00:41:26;98125.03;;;5.26;67.06
49949;BME280;35840;45.982;8.890;2023-03-05T00:43:53;98130.84;;;5.29;66.78
49949;BME280;35840;45.982;8.890;2023-03-05T00:46:20;98120.94;;;5.23;67.96
49949;BME280;35840;45.982;8.890;2023-03-05T00:48:47;98122.56;;;5.24;68.19
49949;BME280;35840;45.982;8.890;2023-03-05T00:51:14;98117.66;;;5.20;67.29
49949;BME280;35840;45.982;8.890;2023-03-05T00:53:41;98118.56;;;5.18;66.42
49949;BME280;35840;45.982;8.890;2023-03-05T00:56:07;98114.00;;;5.06;67.21
49949;BME280;35840;45.982;8.890;2023-03-05T00:58:35;98110.66;;;5.04;66.69
49949;BME280;35840;45.982;8.890;2023-03-05T01:01:03;98103.28;;;4.98;67.52
49949;BME280;35840;45.982;8.890;2023-03-05T01:03:31;98107.50;;;4.99;67.17
49949;BME280;35840;45.982;8.890;2023-03-05T01:05:59;98108.47;;;4.96;67.59
49949;BME280;35840;45.982;8.890;2023-03-05T01:08:26;98110.16;;;4.96;67.20
49949;BME280;35840;45.982;8.890;2023-03-05T01:10:53;98098.69;;;4.86;67.43
49949;BME280;35840;45.982;8.890;2023-03-05T01:13:20;98097.56;;;4.93;67.48
49949;BME280;35840;45.982;8.890;2023-03-05T01:15:47;98096.53;;;4.97;65.62
49949;BME280;35840;45.982;8.890;2023-03-05T01:18:17;98091.66;;;4.92;65.13
49949;BME280;35840;45.982;8.890;2023-03-05T01:20:45;98098.69;;;4.86;66.97
49949;BME280;35840;45.982;8.890;2023-03-05T01:23:12;98093.41;;;4.90;66.24
49949;BME280;35840;45.982;8.890;2023-03-05T01:25:39;98096.81;;;4.91;65.75
49949;BME280;35840;45.982;8.890;2023-03-05T01:28:06;98095.97;;;4.90;66.08
49949;BME280;35840;45.982;8.890;2023-03-05T01:30:33;98094.31;;;4.89;65.01
49949;BME280;35840;45.982;8.890;2023-03-05T01:33:00;98082.75;;;4.82;64.52
49949;BME280;35840;45.982;8.890;2023-03-05T01:35:27;98092.84;;;4.83;64.48
49949;BME280;35840;45.982;8.890;2023-03-05T01:37:54;98084.75;;;4.74;65.10
49949;BME280;35840;45.982;8.890;2023-03-05T01:40:26;98082.34;;;4.71;64.46
49949;BME280;35840;45.982;8.890;2023-03-05T01:45:34;98089.34;;;4.65;64.23
49949;BME280;35840;45.982;8.890;2023-03-05T01:48:01;98079.66;;;4.53;64.45
49949;BME280;35840;45.982;8.890;2023-03-05T01:50:27;98076.28;;;4.53;65.90
49949;BME280;35840;45.982;8.890;2023-03-05T01:52:59;98081.19;;;4.57;65.04
49949;BME280;35840;45.982;8.890;2023-03-05T01:55:28;98072.66;;;4.58;65.13
49949;BME280;35840;45.982;8.890;2023-03-05T01:58:02;98082.06;;;4.56;64.75
49949;BME280;35840;45.982;8.890;2023-03-05T02:00:35;98075.41;;;4.54;64.65
49949;BME280;35840;45.982;8.890;2023-03-05T02:03:04;98065.25;;;4.52;64.35
49949;BME280;35840;45.982;8.890;2023-03-05T02:05:34;98071.06;;;4.56;64.26
49949;BME280;35840;45.982;8.890;2023-03-05T02:08:05;98064.38;;;4.53;64.52
49949;BME280;35840;45.982;8.890;2023-03-05T02:10:35;98056.72;;;4.53;64.56
49949;BME280;35840;45.982;8.890;2023-03-05T02:13:12;98060.00;;;4.57;64.48
49949;BME280;35840;45.982;8.890;2023-03-05T02:15:40;98062.47;;;4.58;64.77
49949;BME280;35840;45.982;8.890;2023-03-05T02:18:08;98059.59;;;4.66;63.80
49949;BME280;35840;45.982;8.890;2023-03-05T02:20:50;98066.44;;;4.65;63.39
49949;BME280;35840;45.982;8.890;2023-03-05T02:23:19;98071.59;;;4.64;63.53
49949;BME280;35840;45.982;8.890;2023-03-05T02:25:46;98058.19;;;4.59;62.58
49949;BME280;35840;45.982;8.890;2023-03-05T02:28:27;98067.69;;;4.55;63.27
49949;BME280;35840;45.982;8.890;2023-03-05T02:30:56;98060.16;;;4.52;63.51
49949;BME280;35840;45.982;8.890;2023-03-05T02:33:22;98056.16;;;4.46;63.48
49949;BME280;35840;45.982;8.890;2023-03-05T02:35:50;98050.03;;;4.51;64.12
49949;BME280;35840;45.982;8.890;2023-03-05T02:38:19;98050.25;;;4.46;63.53
49949;BME280;35840;45.982;8.890;2023-03-05T02:40:46;98054.59;;;4.44;63.88
49949;BME280;35840;45.982;8.890;2023-03-05T02:43:15;98044.06;;;4.31;63.74
49949;BME280;35840;45.982;8.890;2023-03-05T02:45:42;98047.56;;;4.28;64.79
49949;BME280;35840;45.982;8.890;2023-03-05T02:48:09;98054.25;;;4.31;64.32
49949;BME280;35840;45.982;8.890;2023-03-05T02:50:36;98053.53;;;4.27;64.81
49949;BME280;35840;45.982;8.890;2023-03-05T02:53:05;98045.97;;;4.26;64.16
49949;BME280;35840;45.982;8.890;2023-03-05T02:55:32;98039.22;;;4.25;63.63
49949;BME280;35840;45.982;8.890;2023-03-05T02:57:59;98045.31;;;4.21;63.69
49949;BME280;35840;45.982;8.890;2023-03-05T03:00:26;98042.75;;;4.21;64.42
49949;BME280;35840;45.982;8.890;2023-03-05T03:02:53;98037.72;;;4.19;64.35
49949;BME280;35840;45.982;8.890;2023-03-05T03:05:20;98037.09;;;4.14;63.87
49949;BME280;35840;45.982;8.890;2023-03-05T03:07:47;98040.66;;;4.10;64.59
49949;BME280;35840;45.982;8.890;2023-03-05T03:10:14;98038.28;;;4.05;64.25
49949;BME280;35840;45.982;8.890;2023-03-05T03:12:42;98047.69;;;4.03;64.71
49949;BME280;35840;45.982;8.890;2023-03-05T03:15:11;98040.25;;;3.99;64.54
49949;BME280;35840;45.982;8.890;2023-03-05T03:17:38;98040.47;;;3.92;64.59
49949;BME280;35840;45.982;8.890;2023-03-05T03:20:07;98041.03;;;3.78;65.09
49949;BME280;35840;45.982;8.890;2023-03-05T03:22:34;98020.28;;;3.66;66.17
49949;BME280;35840;45.982;8.890;2023-03-05T03:25:02;98037.50;;;3.81;66.03
49949;BME280;35840;45.982;8.890;2023-03-05T03:27:28;98033.34;;;3.80;67.28
49949;BME280;35840;45.982;8.890;2023-03-05T03:29:55;98031.53;;;3.82;65.65
49949;BME280;35840;45.982;8.890;2023-03-05T03:32:22;98030.34;;;3.91;65.37
49949;BME280;35840;45.982;8.890;2023-03-05T03:34:49;98015.59;;;3.78;65.03
49949;BME280;35840;45.982;8.890;2023-03-05T03:37:15;98010.50;;;3.78;64.43
49949;BME280;35840;45.982;8.890;2023-03-05T03:39:42;98034.81;;;3.86;64.76
49949;BME280;35840;45.982;8.890;2023-03-05T03:42:09;98032.34;;;3.83;65.13
49949;BME280;35840;45.982;8.890;2023-03-05T03:44:35;98020.63;;;3.80;64.97
49949;BME280;35840;45.982;8.890;2023-03-05T03:47:02;98021.50;;;3.79;64.90
49949;BME280;35840;45.982;8.890;2023-03-05T03:49:29;98018.97;;;3.79;64.57
49949;BME280;35840;45.982;8.890;2023-03-05T03:51:55;98019.84;;;3.78;64.06
49949;BME280;35840;45.982;8.890;2023-03-05T03:54:23;98023.44;;;3.72;63.98
49949;BME280;35840;45.982;8.890;2023-03-05T03:56:50;98016.06;;;3.66;64.87
49949;BME280;35840;45.982;8.890;2023-03-05T03:59:18;98014.16;;;3.71;63.90
49949;BME280;35840;45.982;8.890;2023-03-05T04:01:44;98020.25;;;3.67;64.11
49949;BME280;35840;45.982;8.890;2023-03-05T04:04:12;98012.09;;;3.59;64.79
49949;BME280;35840;45.982;8.890;2023-03-05T04:06:39;98014.56;;;3.60;63.52
49949;BME280;35840;45.982;8.890;2023-03-05T04:09:06;98018.22;;;3.53;64.28
49949;BME280;35840;45.982;8.890;2023-03-05T04:11:34;98023.47;;;3.49;65.31
49949;BME280;35840;45.982;8.890;2023-03-05T04:14:02;98017.31;;;3.54;65.58
49949;BME280;35840;45.982;8.890;2023-03-05T04:16:29;98012.25;;;3.54;64.46
49949;BME280;35840;45.982;8.890;2023-03-05T04:18:56;98009.13;;;3.48;64.94
49949;BME280;35840;45.982;8.890;2023-03-05T04:21:22;98020.16;;;3.47;64.34
49949;BME280;35840;45.982;8.890;2023-03-05T04:23:49;98019.34;;;3.46;65.35
49949;BME280;35840;45.982;8.890;2023-03-05T04:26:16;98012.78;;;3.40;63.66
49949;BME280;35840;45.982;8.890;2023-03-05T04:28:45;98016.25;;;3.38;63.95
49949;BME280;35840;45.982;8.890;2023-03-05T04:31:12;98011.38;;;3.32;64.44
49949;BME280;35840;45.982;8.890;2023-03-05T04:33:38;98020.03;;;3.27;64.44
49949;BME280;35840;45.982;8.890;2023-03-05T04:36:05;98022.50;;;3.29;64.77
49949;BME280;35840;45.982;8.890;2023-03-05T04:38:32;98011.56;;;3.27;64.41
49949;BME280;35840;45.982;8.890;2023-03-05T04:40:59;98014.78;;;3.32;63.84
49949;BME280;35840;45.982;8.890;2023-03-05T04:43:26;98011.38;;;3.32;64.49
49949;BME280;35840;45.982;8.890;2023-03-05T04:45:53;98007.16;;;3.32;64.28
49949;BME280;35840;45.982;8.890;2023-03-05T04:48:20;98017.31;;;3.32;64.73
49949;BME280;35840;45.982;8.890;2023-03-05T04:50:47;98012.16;;;3.34;64.20
49949;BME280;35840;45.982;8.890;2023-03-05T04:53:13;98007.84;;;3.36;64.57
49949;BME280;35840;45.982;8.890;2023-03-05T04:55:40;98016.25;;;3.38;62.89
49949;BME280;35840;45.982;8.890;2023-03-05T04:58:08;98008.75;;;3.35;62.94
49949;BME280;35840;45.982;8.890;2023-03-05T05:00:34;98014.09;;;3.27;62.66
49949;BME280;35840;45.982;8.890;2023-03-05T05:03:01;98006.59;;;3.24;63.78
49949;BME280;35840;45.982;8.890;2023-03-05T05:05:28;98020.84;;;3.28;64.55
49949;BME280;35840;45.982;8.890;2023-03-05T05:07:56;98019.97;;;3.29;63.41
49949;BME280;35840;45.982;8.890;2023-03-05T05:10:24;98020.91;;;3.26;63.18
49949;BME280;35840;45.982;8.890;2023-03-05T05:12:52;98011.13;;;3.16;63.69
49949;BME280;35840;45.982;8.890;2023-03-05T05:15:19;98021.28;;;3.16;63.78
49949;BME280;35840;45.982;8.890;2023-03-05T05:17:46;98024.00;;;3.11;64.33
49949;BME280;35840;45.982;8.890;2023-03-05T05:20:14;98024.75;;;3.13;64.01
49949;BME280;35840;45.982;8.890;2023-03-05T05:22:42;98021.34;;;3.14;64.62
49949;BME280;35840;45.982;8.890;2023-03-05T05:25:09;98014.72;;;3.10;63.07
49949;BME280;35840;45.982;8.890;2023-03-05T05:27:38;98014.75;;;3.08;63.89
49949;BME280;35840;45.982;8.890;2023-03-05T05:30:05;98017.41;;;3.05;64.92
49949;BME280;35840;45.982;8.890;2023-03-05T05:32:33;98011.59;;;3.02;64.82
49949;BME280;35840;45.982;8.890;2023-03-05T05:35:00;98016.63;;;3.03;65.29
49949;BME280;35840;45.982;8.890;2023-03-05T05:37:28;98014.16;;;3.02;65.04
49949;BME280;35840;45.982;8.890;2023-03-05T05:39:55;98010.63;;;3.06;64.09
49949;BME280;35840;45.982;8.890;2023-03-05T05:42:23;98012.41;;;3.04;63.15
49949;BME280;35840;45.982;8.890;2023-03-05T05:44:50;98006.03;;;2.92;64.29
49949;BME280;35840;45.982;8.890;2023-03-05T05:47:17;97999.38;;;2.89;64.68
49949;BME280;35840;45.982;8.890;2023-03-05T05:49:44;98007.69;;;2.93;64.44
49949;BME280;35840;45.982;8.890;2023-03-05T05:52:11;98017.78;;;2.95;65.20
49949;BME280;35840;45.982;8.890;2023-03-05T05:54:38;98010.97;;;2.97;64.02
49949;BME280;35840;45.982;8.890;2023-03-05T05:57:06;98012.72;;;2.95;63.58
49949;BME280;35840;45.982;8.890;2023-03-05T05:59:33;98006.19;;;2.87;64.15
49949;BME280;35840;45.982;8.890;2023-03-05T06:01:59;98009.47;;;2.91;64.05
49949;BME280;35840;45.982;8.890;2023-03-05T06:04:26;98013.09;;;2.84;63.97
49949;BME280;35840;45.982;8.890;2023-03-05T06:06:53;98002.22;;;2.80;64.55
49949;BME280;35840;45.982;8.890;2023-03-05T06:09:19;98002.22;;;2.80;63.67
49949;BME280;35840;45.982;8.890;2023-03-05T06:11:46;98004.84;;;2.77;64.11
49949;BME280;35840;45.982;8.890;2023-03-05T06:14:13;98014.84;;;2.82;64.09
49949;BME280;35840;45.982;8.890;2023-03-05T06:16:39;98010.66;;;2.81;64.76
49949;BME280;35840;45.982;8.890;2023-03-05T06:19:10;98008.09;;;2.81;64.49
49949;BME280;35840;45.982;8.890;2023-03-05T06:21:37;98015.06;;;2.75;64.53
49949;BME280;35840;45.982;8.890;2023-03-05T06:24:05;98015.25;;;2.71;65.06
49949;BME280;35840;45.982;8.890;2023-03-05T06:26:32;98010.06;;;2.74;65.08
49949;BME280;35840;45.982;8.890;2023-03-05T06:28:59;97998.19;;;2.74;64.88
49949;BME280;35840;45.982;8.890;2023-03-05T06:31:27;98006.59;;;2.75;64.54
49949;BME280;35840;45.982;8.890;2023-03-05T06:33:56;98006.59;;;2.75;64.52
49949;BME280;35840;45.982;8.890;2023-03-05T06:36:24;97995.53;;;2.78;64.21
49949;BME280;35840;45.982;8.890;2023-03-05T06:38:51;98003.81;;;2.83;63.64
49949;BME280;35840;45.982;8.890;2023-03-05T06:41:27;98006.31;;;2.84;64.18
49949;BME280;35840;45.982;8.890;2023-03-05T06:43:55;98004.69;;;2.82;63.68
49949;BME280;35840;45.982;8.890;2023-03-05T06:46:29;98008.03;;;2.84;63.87
49949;BME280;35840;45.982;8.890;2023-03-05T06:48:58;98003.00;;;2.82;64.32
49949;BME280;35840;45.982;8.890;2023-03-05T06:51:27;98005.25;;;2.90;63.69
49949;BME280;35840;45.982;8.890;2023-03-05T06:53:55;98005.38;;;2.87;64.32
49949;BME280;35840;45.982;8.890;2023-03-05T06:56:24;98003.66;;;2.87;64.36
49949;BME280;35840;45.982;8.890;2023-03-05T06:58:51;98002.44;;;2.98;65.22
49949;BME280;35840;45.982;8.890;2023-03-05T07:01:19;97983.16;;;2.92;64.86
49949;BME280;35840;45.982;8.890;2023-03-05T07:03:51;97983.09;;;2.95;65.53
49949;BME280;35840;45.982;8.890;2023-03-05T07:06:18;97995.31;;;3.07;65.89
49949;BME280;35840;45.982;8.890;2023-03-05T07:08:46;98007.75;;;3.15;66.50
49949;BME280;35840;45.982;8.890;2023-03-05T07:11:18;97999.16;;;3.19;67.08
49949;BME280;35840;45.982;8.890;2023-03-05T07:13:46;97999.47;;;3.34;68.34
49949;BME280;35840;45.982;8.890;2023-03-05T07:16:22;97996.34;;;3.49;69.48
49949;BME280;35840;45.982;8.890;2023-03-05T07:18:50;97995.91;;;3.61;69.34
49949;BME280;35840;45.982;8.890;2023-03-05T07:21:19;97994.88;;;3.66;69.91
49949;BME280;35840;45.982;8.890;2023-03-05T07:23:46;97993.72;;;3.74;69.93
49949;BME280;35840;45.982;8.890;2023-03-05T07:26:14;97997.75;;;3.80;70.41
49949;BME280;35840;45.982;8.890;2023-03-05T07:28:41;97997.50;;;3.86;70.50
49949;BME280;35840;45.982;8.890;2023-03-05T07:31:14;97992.28;;;3.89;70.89
49949;BME280;35840;45.982;8.890;2023-03-05T07:33:41;97973.00;;;3.84;70.66
49949;BME280;35840;45.982;8.890;2023-03-05T07:36:08;98000.31;;;4.01;70.39
49949;BME280;35840;45.982;8.890;2023-03-05T07:38:36;98000.97;;;4.06;70.42
49949;BME280;35840;45.982;8.890;2023-03-05T07:41:05;97997.56;;;4.05;70.56
49949;BME280;35840;45.982;8.890;2023-03-05T07:43:32;97997.22;;;4.14;71.48
49949;BME280;35840;45.982;8.890;2023-03-05T07:46:05;97993.91;;;4.12;71.10
49949;BME280;35840;45.982;8.890;2023-03-05T07:48:33;97996.00;;;4.23;71.64
49949;BME280;35840;45.982;8.890;2023-03-05T07:51:05;97991.31;;;4.35;70.42
49949;BME280;35840;45.982;8.890;2023-03-05T07:53:32;97996.28;;;4.38;70.28
49949;BME280;35840;45.982;8.890;2023-03-05T07:55:59;97994.13;;;4.49;69.89
49949;BME280;35840;45.982;8.890;2023-03-05T07:58:25;97991.34;;;4.55;69.98
49949;BME280;35840;45.982;8.890;2023-03-05T08:00:52;97981.09;;;4.57;70.31
49949;BME280;35840;45.982;8.890;2023-03-05T08:03:19;97979.84;;;4.65;70.53
49949;BME280;35840;45.982;8.890;2023-03-05T08:05:46;97983.88;;;4.71;70.24
49949;BME280;35840;45.982;8.890;2023-03-05T08:08:12;97976.03;;;4.76;70.07
49949;BME280;35840;45.982;8.890;2023-03-05T08:10:39;97976.72;;;4.79;69.81
49949;BME280;35840;45.982;8.890;2023-03-05T08:13:06;97979.00;;;4.86;69.20
49949;BME280;35840;45.982;8.890;2023-03-05T08:15:33;97975.44;;;4.90;69.40
49949;BME280;35840;45.982;8.890;2023-03-05T08:18:00;97964.34;;;4.91;69.01
49949;BME280;35840;45.982;8.890;2023-03-05T08:20:27;97971.44;;;5.03;68.60
49949;BME280;35840;45.982;8.890;2023-03-05T08:22:53;97974.47;;;5.11;68.44
49949;BME280;35840;45.982;8.890;2023-03-05T08:25:20;97974.22;;;5.17;67.98
49949;BME280;35840;45.982;8.890;2023-03-05T08:27:47;97966.38;;;5.22;67.80
49949;BME280;35840;45.982;8.890;2023-03-05T08:30:18;97967.81;;;5.28;67.82
49949;BME280;35840;45.982;8.890;2023-03-05T08:32:48;97963.31;;;5.33;67.91
49949;BME280;35840;45.982;8.890;2023-03-05T08:35:15;97958.91;;;5.37;67.85
49949;BME280;35840;45.982;8.890;2023-03-05T08:37:42;97953.59;;;5.41;66.75
49949;BME280;35840;45.982;8.890;2023-03-05T08:40:09;97949.19;;;5.45;66.04
49949;BME280;35840;45.982;8.890;2023-03-05T08:42:36;97948.34;;;5.44;66.12
49949;BME280;35840;45.982;8.890;2023-03-05T08:45:03;97951.66;;;5.46;66.68
49949;BME280;35840;45.982;8.890;2023-03-05T08:47:30;97944.19;;;5.61;66.44
49949;BME280;35840;45.982;8.890;2023-03-05T08:49:56;97942.94;;;5.69;65.17
49949;BME280;35840;45.982;8.890;2023-03-05T08:52:23;97940.22;;;5.73;65.40
49949;BME280;35840;45.982;8.890;2023-03-05T08:54:52;97930.03;;;5.73;65.76
49949;BME280;35840;45.982;8.890;2023-03-05T08:57:19;97941.88;;;5.74;66.61
49949;BME280;35840;45.982;8.890;2023-03-05T08:59:46;97935.81;;;5.76;65.56
49949;BME280;35840;45.982;8.890;2023-03-05T09:02:13;97943.09;;;5.84;65.11
49949;BME280;35840;45.982;8.890;2023-03-05T09:04:40;97921.22;;;5.80;65.49
49949;BME280;35840;45.982;8.890;2023-03-05T09:07:07;97934.31;;;5.90;65.59
49949;BME280;35840;45.982;8.890;2023-03-05T09:09:34;97934.72;;;5.99;64.89
49949;BME280;35840;45.982;8.890;2023-03-05T09:12:01;97932.88;;;6.03;64.31
49949;BME280;35840;45.982;8.890;2023-03-05T09:14:28;97928.59;;;6.03;63.24
49949;BME280;35840;45.982;8.890;2023-03-05T09:16:56;97927.53;;;6.08;63.00
49949;BME280;35840;45.982;8.890;2023-03-05T09:19:25;97926.47;;;6.29;63.07
49949;BME280;35840;45.982;8.890;2023-03-05T09:21:53;97913.69;;;6.29;61.92
49949;BME280;35840;45.982;8.890;2023-03-05T09:24:22;97922.28;;;6.28;61.94
49949;BME280;35840;45.982;8.890;2023-03-05T09:26:49;97913.34;;;6.37;61.59
49949;BME280;35840;45.982;8.890;2023-03-05T09:29:15;97911.31;;;6.44;60.63
49949;BME280;35840;45.982;8.890;2023-03-05T09:31:42;97906.75;;;6.66;60.61
49949;BME280;35840;45.982;8.890;2023-03-05T09:34:10;97907.38;;;6.70;60.03
49949;BME280;35840;45.982;8.890;2023-03-05T09:36:37;97904.59;;;6.75;59.46
49949;BME280;35840;45.982;8.890;2023-03-05T09:39:04;97897.69;;;6.77;59.23
49949;BME280;35840;45.982;8.890;2023-03-05T09:44:24;97897.56;;;7.12;59.06
49949;BME280;35840;45.982;8.890;2023-03-05T09:49:56;97892.00;;;7.35;53.25
49949;BME280;35840;45.982;8.890;2023-03-05T09:52:46;97886.78;;;7.53;53.02
49949;BME280;35840;45.982;8.890;2023-03-05T09:55:24;97882.03;;;7.61;51.60
49949;BME280;35840;45.982;8.890;2023-03-05T09:57:56;97879.25;;;7.66;50.20
49949;BME280;35840;45.982;8.890;2023-03-05T10:00:32;97874.56;;;7.58;51.52
49949;BME280;35840;45.982;8.890;2023-03-05T10:03:04;97866.38;;;7.67;53.34
49949;BME280;35840;45.982;8.890;2023-03-05T10:08:12;97865.72;;;7.94;52.07
49949;BME280;35840;45.982;8.890;2023-03-05T10:10:43;97857.16;;;8.24;51.33
49949;BME280;35840;45.982;8.890;2023-03-05T10:13:18;97858.72;;;8.26;51.71
49949;BME280;35840;45.982;8.890;2023-03-05T10:15:54;97859.44;;;8.43;51.40
49949;BME280;35840;45.982;8.890;2023-03-05T10:18:36;97845.19;;;8.53;49.72
49949;BME280;35840;45.982;8.890;2023-03-05T10:27:49;97846.00;;;8.68;49.04
49949;BME280;35840;45.982;8.890;2023-03-05T10:33:16;97833.22;;;8.95;46.40
49949;BME280;35840;45.982;8.890;2023-03-05T10:46:15;97819.03;;;8.90;47.06
49949;BME280;35840;45.982;8.890;2023-03-05T10:51:38;97811.63;;;9.12;47.61
49949;BME280;35840;45.982;8.890;2023-03-05T10:54:32;97801.69;;;9.61;47.52
49949;BME280;35840;45.982;8.890;2023-03-05T11:00:19;97800.00;;;9.87;46.91
49949;BME280;35840;45.982;8.890;2023-03-05T11:03:00;97802.75;;;9.71;45.67
49949;BME280;35840;45.982;8.890;2023-03-05T11:05:58;97801.81;;;9.72;46.19
49949;BME280;35840;45.982;8.890;2023-03-05T11:13:29;97771.13;;;10.22;47.14
49949;BME280;35840;45.982;8.890;2023-03-05T11:16:01;97765.22;;;10.33;47.73
49949;BME280;35840;45.982;8.890;2023-03-05T11:18:30;97759.06;;;10.48;46.62
49949;BME280;35840;45.982;8.890;2023-03-05T11:21:11;97754.34;;;10.42;46.16
49949;BME280;35840;45.982;8.890;2023-03-05T11:24:02;97743.44;;;10.76;47.17
49949;BME280;35840;45.982;8.890;2023-03-05T11:26:30;97736.59;;;10.88;46.23
49949;BME280;35840;45.982;8.890;2023-03-05T11:28:59;97734.72;;;11.14;46.53
49949;BME280;35840;45.982;8.890;2023-03-05T11:31:35;97732.81;;;11.40;46.21
49949;BME280;35840;45.982;8.890;2023-03-05T11:34:05;97729.81;;;11.69;45.70
49949;BME280;35840;45.982;8.890;2023-03-05T11:36:41;97723.53;;;11.96;44.42
49949;BME280;35840;45.982;8.890;2023-03-05T11:39:10;97720.16;;;12.07;46.20
49949;BME280;35840;45.982;8.890;2023-03-05T11:44:27;97694.25;;;12.08;44.99
49949;BME280;35840;45.982;8.890;2023-03-05T11:47:18;97711.09;;;12.35;42.37
49949;BME280;35840;45.982;8.890;2023-03-05T11:49:51;97704.66;;;12.29;44.44
49949;BME280;35840;45.982;8.890;2023-03-05T11:52:23;97685.97;;;12.48;43.29
49949;BME280;35840;45.982;8.890;2023-03-05T11:55:01;97684.66;;;12.54;43.57
49949;BME280;35840;45.982;8.890;2023-03-05T11:58:20;97673.50;;;12.65;43.48
49949;BME280;35840;45.982;8.890;2023-03-05T12:00:48;97680.78;;;12.92;41.91
49949;BME280;35840;45.982;8.890;2023-03-05T12:03:18;97669.88;;;12.88;42.13
49949;BME280;35840;45.982;8.890;2023-03-05T12:08:41;97665.81;;;12.86;43.38
49949;BME280;35840;45.982;8.890;2023-03-05T12:11:17;97650.56;;;13.04;41.92
49949;BME280;35840;45.982;8.890;2023-03-05T12:13:49;97655.25;;;13.10;41.21
49949;BME280;35840;45.982;8.890;2023-03-05T12:21:48;97640.25;;;13.04;41.71
49949;BME280;35840;45.982;8.890;2023-03-05T12:31:56;97617.94;;;13.45;41.51
49949;BME280;35840;45.982;8.890;2023-03-05T12:37:59;97609.31;;;13.56;40.34
49949;BME280;35840;45.982;8.890;2023-03-05T12:47:43;97595.88;;;13.72;40.57
49949;BME280;35840;45.982;8.890;2023-03-05T12:55:58;97581.63;;;13.77;40.33
49949;BME280;35840;45.982;8.890;2023-03-05T12:58:42;97580.25;;;13.73;41.80
49949;BME280;35840;45.982;8.890;2023-03-05T13:03:56;97573.59;;;13.81;42.21
49949;BME280;35840;45.982;8.890;2023-03-05T13:06:32;97581.53;;;13.89;41.88
49949;BME280;35840;45.982;8.890;2023-03-05T13:09:00;97570.22;;;13.80;43.66
49949;BME280;35840;45.982;8.890;2023-03-05T13:11:29;97572.25;;;13.86;43.07
49949;BME280;35840;45.982;8.890;2023-03-05T13:13:58;97566.44;;;13.94;44.51
49949;BME280;35840;45.982;8.890;2023-03-05T13:16:28;97561.28;;;14.04;43.88
49949;BME280;35840;45.982;8.890;2023-03-05T13:18:58;97560.06;;;14.08;44.70
49949;BME280;35840;45.982;8.890;2023-03-05T13:21:28;97560.47;;;14.13;44.39
49949;BME280;35840;45.982;8.890;2023-03-05T13:23:58;97552.19;;;14.19;43.75
49949;BME280;35840;45.982;8.890;2023-03-05T13:26:36;97553.81;;;14.10;44.93
49949;BME280;35840;45.982;8.890;2023-03-05T13:29:18;97556.13;;;14.23;45.35
49949;BME280;35840;45.982;8.890;2023-03-05T13:31:56;97550.41;;;14.10;45.66
49949;BME280;35840;45.982;8.890;2023-03-05T13:34:31;97548.38;;;14.23;46.45
49949;BME280;35840;45.982;8.890;2023-03-05T13:37:17;97546.19;;;14.19;45.25
49949;BME280;35840;45.982;8.890;2023-03-05T13:40:02;97552.59;;;14.05;45.70
49949;BME280;35840;45.982;8.890;2023-03-05T13:42:34;97547.81;;;14.00;46.94
49949;BME280;35840;45.982;8.890;2023-03-05T13:45:15;97541.97;;;14.08;46.12
49949;BME280;35840;45.982;8.890;2023-03-05T13:48:00;97531.91;;;14.15;46.89
49949;BME280;35840;45.982;8.890;2023-03-05T13:50:29;97537.34;;;14.21;45.80
49949;BME280;35840;45.982;8.890;2023-03-05T13:55:51;97527.56;;;14.15;47.50
49949;BME280;35840;45.982;8.890;2023-03-05T13:58:56;97534.38;;;14.16;46.38
49949;BME280;35840;45.982;8.890;2023-03-05T14:01:30;97531.09;;;14.14;46.43
49949;BME280;35840;45.982;8.890;2023-03-05T14:04:19;97524.41;;;14.11;46.10
49949;BME280;35840;45.982;8.890;2023-03-05T14:07:04;97526.59;;;14.26;45.28
49949;BME280;35840;45.982;8.890;2023-03-05T14:12:14;97522.63;;;14.32;45.96
49949;BME280;35840;45.982;8.890;2023-03-05T14:14:47;97521.56;;;14.34;45.44
49949;BME280;35840;45.982;8.890;2023-03-05T14:22:44;97517.22;;;14.25;46.68
49949;BME280;35840;45.982;8.890;2023-03-05T14:25:50;97505.25;;;14.24;47.21
49949;BME280;35840;45.982;8.890;2023-03-05T14:30:45;97501.72;;;14.15;46.95
49949;BME280;35840;45.982;8.890;2023-03-05T14:33:13;97501.16;;;14.21;46.89
49949;BME280;35840;45.982;8.890;2023-03-05T14:35:47;97495.47;;;14.18;47.54
49949;BME280;35840;45.982;8.890;2023-03-05T14:38:26;97505.38;;;14.22;48.40
49949;BME280;35840;45.982;8.890;2023-03-05T14:40:53;97503.59;;;14.13;47.84
49949;BME280;35840;45.982;8.890;2023-03-05T14:43:20;97493.69;;;14.18;46.29
49949;BME280;35840;45.982;8.890;2023-03-05T14:45:47;97498.44;;;14.13;47.48
49949;BME280;35840;45.982;8.890;2023-03-05T14:48:16;97487.28;;;14.03;47.71
49949;BME280;35840;45.982;8.890;2023-03-05T14:50:46;97490.97;;;14.10;46.66
49949;BME280;35840;45.982;8.890;2023-03-05T14:53:23;97484.44;;;14.06;46.57
49949;BME280;35840;45.982;8.890;2023-03-05T14:55:52;97481.84;;;14.06;46.11